Terminal Aerodrome Forecast
Issued by NWS

Home | Current Version | Previous Version | Text Only | Print | Product List | Glossary On
Versions: 1 2 3 4 5 6 7 8 9 10 11 12 13 14 15 16 17
000
FTUS43 KABR 231700
TAFPIR
TAF
KPIR 231720Z 2318/2418 15017KT P6SM OVC016
     FM240000 13008KT P6SM OVC025
     FM240900 13005KT 4SM BR BKN010
     FM241500 21004KT P6SM SKC=

USA.gov is the U.S. government's official web portal to all federal, state and local government web resources and services.